sensor_id;sensor_type;location;lat;lon;timestamp;P1;durP1;ratioP1;P2;durP2;ratioP2
6667;SDS011;3370;47.712;9.082;2023-03-14T00:01:52;5.83;;;1.50;;
6667;SDS011;3370;47.712;9.082;2023-03-14T00:04:38;2.97;;;1.27;;
6667;SDS011;3370;47.712;9.082;2023-03-14T00:07:24;5.03;;;1.13;;
6667;SDS011;3370;47.712;9.082;2023-03-14T00:10:12;1.67;;;1.10;;
6667;SDS011;3370;47.712;9.082;2023-03-14T00:13:00;1.83;;;1.33;;
6667;SDS011;3370;47.712;9.082;2023-03-14T00:15:46;1.63;;;1.27;;
6667;SDS011;3370;47.712;9.082;2023-03-14T00:18:32;2.00;;;1.10;;
6667;SDS011;3370;47.712;9.082;2023-03-14T00:21:19;1.33;;;1.23;;
6667;SDS011;3370;47.712;9.082;2023-03-14T00:24:05;1.30;;;1.20;;
6667;SDS011;3370;47.712;9.082;2023-03-14T00:26:52;2.33;;;1.30;;
6667;SDS011;3370;47.712;9.082;2023-03-14T00:29:38;3.97;;;1.53;;
6667;SDS011;3370;47.712;9.082;2023-03-14T00:32:24;1.50;;;1.40;;
6667;SDS011;3370;47.712;9.082;2023-03-14T00:35:10;1.43;;;1.20;;
6667;SDS011;3370;47.712;9.082;2023-03-14T00:37:56;1.03;;;1.03;;
6667;SDS011;3370;47.712;9.082;2023-03-14T00:40:42;1.03;;;1.00;;
6667;SDS011;3370;47.712;9.082;2023-03-14T00:43:28;0.87;;;0.87;;
6667;SDS011;3370;47.712;9.082;2023-03-14T00:46:15;1.13;;;1.00;;
6667;SDS011;3370;47.712;9.082;2023-03-14T00:49:01;0.90;;;0.90;;
6667;SDS011;3370;47.712;9.082;2023-03-14T00:51:47;1.20;;;1.20;;
6667;SDS011;3370;47.712;9.082;2023-03-14T00:54:33;0.70;;;0.70;;
6667;SDS011;3370;47.712;9.082;2023-03-14T00:57:19;0.90;;;0.90;;
6667;SDS011;3370;47.712;9.082;2023-03-14T01:00:06;0.90;;;0.80;;
6667;SDS011;3370;47.712;9.082;2023-03-14T01:02:57;1.07;;;0.93;;
6667;SDS011;3370;47.712;9.082;2023-03-14T01:05:43;1.03;;;1.03;;
6667;SDS011;3370;47.712;9.082;2023-03-14T01:08:29;1.90;;;0.97;;
6667;SDS011;3370;47.712;9.082;2023-03-14T01:11:19;2.00;;;1.00;;
6667;SDS011;3370;47.712;9.082;2023-03-14T01:14:09;1.63;;;1.00;;
6667;SDS011;3370;47.712;9.082;2023-03-14T01:16:55;0.90;;;0.90;;
6667;SDS011;3370;47.712;9.082;2023-03-14T01:19:45;0.77;;;0.77;;
6667;SDS011;3370;47.712;9.082;2023-03-14T01:22:31;0.80;;;0.80;;
6667;SDS011;3370;47.712;9.082;2023-03-14T01:25:18;0.83;;;0.83;;
6667;SDS011;3370;47.712;9.082;2023-03-14T01:28:04;2.83;;;1.00;;
6667;SDS011;3370;47.712;9.082;2023-03-14T01:30:50;0.90;;;0.90;;
6667;SDS011;3370;47.712;9.082;2023-03-14T01:33:36;1.00;;;1.00;;
6667;SDS011;3370;47.712;9.082;2023-03-14T01:36:22;1.03;;;0.80;;
6667;SDS011;3370;47.712;9.082;2023-03-14T01:39:08;1.00;;;1.00;;
6667;SDS011;3370;47.712;9.082;2023-03-14T01:41:54;0.87;;;0.87;;
6667;SDS011;3370;47.712;9.082;2023-03-14T01:44:51;0.80;;;0.80;;
6667;SDS011;3370;47.712;9.082;2023-03-14T01:47:43;0.80;;;0.80;;
6667;SDS011;3370;47.712;9.082;2023-03-14T01:50:29;0.73;;;0.73;;
6667;SDS011;3370;47.712;9.082;2023-03-14T01:53:16;0.90;;;0.90;;
6667;SDS011;3370;47.712;9.082;2023-03-14T01:56:07;0.70;;;0.70;;
6667;SDS011;3370;47.712;9.082;2023-03-14T01:58:57;0.60;;;0.60;;
6667;SDS011;3370;47.712;9.082;2023-03-14T02:01:44;0.70;;;0.70;;
6667;SDS011;3370;47.712;9.082;2023-03-14T02:04:35;0.77;;;0.77;;
6667;SDS011;3370;47.712;9.082;2023-03-14T02:07:25;0.53;;;0.53;;
6667;SDS011;3370;47.712;9.082;2023-03-14T02:10:27;0.90;;;0.80;;
6667;SDS011;3370;47.712;9.082;2023-03-14T02:13:19;0.80;;;0.80;;
6667;SDS011;3370;47.712;9.082;2023-03-14T02:16:07;2.57;;;0.90;;
6667;SDS011;3370;47.712;9.082;2023-03-14T02:18:54;0.70;;;0.70;;
6667;SDS011;3370;47.712;9.082;2023-03-14T02:21:51;0.60;;;0.60;;
6667;SDS011;3370;47.712;9.082;2023-03-14T02:24:53;0.70;;;0.70;;
6667;SDS011;3370;47.712;9.082;2023-03-14T02:27:43;0.80;;;0.80;;
6667;SDS011;3370;47.712;9.082;2023-03-14T02:30:30;0.80;;;0.80;;
6667;SDS011;3370;47.712;9.082;2023-03-14T02:33:18;0.80;;;0.80;;
6667;SDS011;3370;47.712;9.082;2023-03-14T02:36:09;0.80;;;0.80;;
6667;SDS011;3370;47.712;9.082;2023-03-14T02:39:11;1.77;;;0.80;;
6667;SDS011;3370;47.712;9.082;2023-03-14T02:42:03;1.90;;;0.60;;
6667;SDS011;3370;47.712;9.082;2023-03-14T02:47:58;0.60;;;0.60;;
6667;SDS011;3370;47.712;9.082;2023-03-14T02:50:50;0.73;;;0.73;;
6667;SDS011;3370;47.712;9.082;2023-03-14T02:53:40;0.70;;;0.70;;
6667;SDS011;3370;47.712;9.082;2023-03-14T02:56:27;0.63;;;0.63;;
6667;SDS011;3370;47.712;9.082;2023-03-14T02:59:13;0.90;;;0.80;;
6667;SDS011;3370;47.712;9.082;2023-03-14T03:02:00;0.70;;;0.70;;
6667;SDS011;3370;47.712;9.082;2023-03-14T03:04:46;0.80;;;0.80;;
6667;SDS011;3370;47.712;9.082;2023-03-14T03:07:32;0.70;;;0.70;;
6667;SDS011;3370;47.712;9.082;2023-03-14T03:10:18;0.60;;;0.60;;
6667;SDS011;3370;47.712;9.082;2023-03-14T03:13:04;0.57;;;0.57;;
6667;SDS011;3370;47.712;9.082;2023-03-14T03:15:50;0.70;;;0.70;;
6667;SDS011;3370;47.712;9.082;2023-03-14T03:18:36;2.40;;;0.70;;
6667;SDS011;3370;47.712;9.082;2023-03-14T03:21:22;2.33;;;0.67;;
6667;SDS011;3370;47.712;9.082;2023-03-14T03:24:08;0.70;;;0.70;;
6667;SDS011;3370;47.712;9.082;2023-03-14T03:26:54;0.80;;;0.80;;
6667;SDS011;3370;47.712;9.082;2023-03-14T03:29:41;0.60;;;0.60;;
6667;SDS011;3370;47.712;9.082;2023-03-14T03:32:27;0.80;;;0.80;;
6667;SDS011;3370;47.712;9.082;2023-03-14T03:35:13;0.50;;;0.50;;
6667;SDS011;3370;47.712;9.082;2023-03-14T03:37:59;0.70;;;0.70;;
6667;SDS011;3370;47.712;9.082;2023-03-14T03:40:45;0.73;;;0.73;;
6667;SDS011;3370;47.712;9.082;2023-03-14T03:43:31;0.70;;;0.70;;
6667;SDS011;3370;47.712;9.082;2023-03-14T03:46:17;0.70;;;0.70;;
6667;SDS011;3370;47.712;9.082;2023-03-14T03:49:03;1.70;;;0.70;;
6667;SDS011;3370;47.712;9.082;2023-03-14T03:51:49;0.70;;;0.70;;
6667;SDS011;3370;47.712;9.082;2023-03-14T03:54:36;0.80;;;0.80;;
6667;SDS011;3370;47.712;9.082;2023-03-14T03:57:22;0.60;;;0.60;;
6667;SDS011;3370;47.712;9.082;2023-03-14T04:00:09;0.70;;;0.70;;
6667;SDS011;3370;47.712;9.082;2023-03-14T04:02:57;0.70;;;0.70;;
6667;SDS011;3370;47.712;9.082;2023-03-14T04:05:44;0.80;;;0.80;;
6667;SDS011;3370;47.712;9.082;2023-03-14T04:08:30;0.80;;;0.80;;
6667;SDS011;3370;47.712;9.082;2023-03-14T04:11:17;0.80;;;0.80;;
6667;SDS011;3370;47.712;9.082;2023-03-14T04:14:03;0.80;;;0.80;;
6667;SDS011;3370;47.712;9.082;2023-03-14T04:16:51;0.70;;;0.70;;
6667;SDS011;3370;47.712;9.082;2023-03-14T04:19:37;0.70;;;0.70;;
6667;SDS011;3370;47.712;9.082;2023-03-14T04:22:23;4.03;;;0.70;;
6667;SDS011;3370;47.712;9.082;2023-03-14T04:25:09;1.37;;;0.60;;
6667;SDS011;3370;47.712;9.082;2023-03-14T04:27:55;0.70;;;0.70;;
6667;SDS011;3370;47.712;9.082;2023-03-14T04:30:41;0.70;;;0.70;;
6667;SDS011;3370;47.712;9.082;2023-03-14T04:33:27;0.60;;;0.60;;
6667;SDS011;3370;47.712;9.082;2023-03-14T04:36:13;0.60;;;0.60;;
6667;SDS011;3370;47.712;9.082;2023-03-14T04:38:59;0.60;;;0.60;;
6667;SDS011;3370;47.712;9.082;2023-03-14T04:41:45;0.70;;;0.70;;
6667;SDS011;3370;47.712;9.082;2023-03-14T04:44:31;0.73;;;0.73;;
6667;SDS011;3370;47.712;9.082;2023-03-14T04:47:18;0.73;;;0.73;;
6667;SDS011;3370;47.712;9.082;2023-03-14T04:50:04;0.50;;;0.50;;
6667;SDS011;3370;47.712;9.082;2023-03-14T04:52:50;0.93;;;0.87;;
6667;SDS011;3370;47.712;9.082;2023-03-14T04:55:36;0.87;;;0.87;;
6667;SDS011;3370;47.712;9.082;2023-03-14T04:58:23;0.60;;;0.60;;
6667;SDS011;3370;47.712;9.082;2023-03-14T05:01:09;0.63;;;0.63;;
6667;SDS011;3370;47.712;9.082;2023-03-14T05:03:56;0.70;;;0.70;;
6667;SDS011;3370;47.712;9.082;2023-03-14T05:06:42;0.60;;;0.60;;
6667;SDS011;3370;47.712;9.082;2023-03-14T05:09:28;0.80;;;0.80;;
6667;SDS011;3370;47.712;9.082;2023-03-14T05:12:14;0.70;;;0.70;;
6667;SDS011;3370;47.712;9.082;2023-03-14T05:15:00;0.70;;;0.70;;
6667;SDS011;3370;47.712;9.082;2023-03-14T05:17:46;0.70;;;0.70;;
6667;SDS011;3370;47.712;9.082;2023-03-14T05:20:34;0.93;;;0.93;;
6667;SDS011;3370;47.712;9.082;2023-03-14T05:23:20;0.90;;;0.90;;
6667;SDS011;3370;47.712;9.082;2023-03-14T05:26:06;0.70;;;0.70;;
6667;SDS011;3370;47.712;9.082;2023-03-14T05:28:53;0.80;;;0.80;;
6667;SDS011;3370;47.712;9.082;2023-03-14T05:31:39;0.67;;;0.67;;
6667;SDS011;3370;47.712;9.082;2023-03-14T05:34:25;0.80;;;0.80;;
6667;SDS011;3370;47.712;9.082;2023-03-14T05:37:11;0.70;;;0.70;;
6667;SDS011;3370;47.712;9.082;2023-03-14T05:39:57;0.57;;;0.57;;
6667;SDS011;3370;47.712;9.082;2023-03-14T05:42:43;0.80;;;0.80;;
6667;SDS011;3370;47.712;9.082;2023-03-14T05:45:29;0.73;;;0.73;;
6667;SDS011;3370;47.712;9.082;2023-03-14T05:48:15;1.03;;;0.90;;
6667;SDS011;3370;47.712;9.082;2023-03-14T05:51:02;0.70;;;0.70;;
6667;SDS011;3370;47.712;9.082;2023-03-14T05:53:48;0.70;;;0.70;;
6667;SDS011;3370;47.712;9.082;2023-03-14T05:56:34;0.63;;;0.63;;
6667;SDS011;3370;47.712;9.082;2023-03-14T05:59:20;0.70;;;0.70;;
6667;SDS011;3370;47.712;9.082;2023-03-14T06:02:06;0.83;;;0.83;;
6667;SDS011;3370;47.712;9.082;2023-03-14T06:04:52;0.87;;;0.87;;
6667;SDS011;3370;47.712;9.082;2023-03-14T06:07:38;0.70;;;0.60;;
6667;SDS011;3370;47.712;9.082;2023-03-14T06:10:25;1.00;;;0.70;;
6667;SDS011;3370;47.712;9.082;2023-03-14T06:13:11;0.90;;;0.90;;
6667;SDS011;3370;47.712;9.082;2023-03-14T06:15:57;0.63;;;0.63;;
6667;SDS011;3370;47.712;9.082;2023-03-14T06:18:44;0.70;;;0.70;;
6667;SDS011;3370;47.712;9.082;2023-03-14T06:21:32;0.63;;;0.63;;
6667;SDS011;3370;47.712;9.082;2023-03-14T06:24:18;0.80;;;0.80;;
6667;SDS011;3370;47.712;9.082;2023-03-14T06:27:04;1.93;;;0.73;;
6667;SDS011;3370;47.712;9.082;2023-03-14T06:29:50;0.70;;;0.70;;
6667;SDS011;3370;47.712;9.082;2023-03-14T06:32:36;0.80;;;0.80;;
6667;SDS011;3370;47.712;9.082;2023-03-14T06:35:22;0.80;;;0.80;;
6667;SDS011;3370;47.712;9.082;2023-03-14T06:38:08;0.80;;;0.80;;
6667;SDS011;3370;47.712;9.082;2023-03-14T06:40:54;2.40;;;0.80;;
6667;SDS011;3370;47.712;9.082;2023-03-14T06:43:40;0.80;;;0.80;;
6667;SDS011;3370;47.712;9.082;2023-03-14T06:46:26;0.77;;;0.77;;
6667;SDS011;3370;47.712;9.082;2023-03-14T06:49:12;0.90;;;0.90;;
6667;SDS011;3370;47.712;9.082;2023-03-14T06:51:59;0.90;;;0.90;;
6667;SDS011;3370;47.712;9.082;2023-03-14T06:54:45;2.30;;;0.90;;
6667;SDS011;3370;47.712;9.082;2023-03-14T06:57:31;1.13;;;1.03;;
6667;SDS011;3370;47.712;9.082;2023-03-14T07:00:17;1.20;;;1.20;;
6667;SDS011;3370;47.712;9.082;2023-03-14T07:03:03;0.90;;;0.90;;
6667;SDS011;3370;47.712;9.082;2023-03-14T07:05:49;0.77;;;0.77;;
6667;SDS011;3370;47.712;9.082;2023-03-14T07:08:36;0.70;;;0.70;;
6667;SDS011;3370;47.712;9.082;2023-03-14T07:11:23;0.83;;;0.83;;
6667;SDS011;3370;47.712;9.082;2023-03-14T07:14:09;2.10;;;0.90;;
6667;SDS011;3370;47.712;9.082;2023-03-14T07:16:56;2.40;;;0.80;;
6667;SDS011;3370;47.712;9.082;2023-03-14T07:19:42;0.77;;;0.77;;
6667;SDS011;3370;47.712;9.082;2023-03-14T07:22:28;0.50;;;0.40;;
6667;SDS011;3370;47.712;9.082;2023-03-14T07:25:14;0.80;;;0.80;;
6667;SDS011;3370;47.712;9.082;2023-03-14T07:28:01;1.00;;;1.00;;
6667;SDS011;3370;47.712;9.082;2023-03-14T07:30:47;0.80;;;0.80;;
6667;SDS011;3370;47.712;9.082;2023-03-14T07:33:33;1.27;;;1.00;;
6667;SDS011;3370;47.712;9.082;2023-03-14T07:36:19;2.47;;;1.20;;
6667;SDS011;3370;47.712;9.082;2023-03-14T07:39:06;1.73;;;1.10;;
6667;SDS011;3370;47.712;9.082;2023-03-14T07:41:52;0.97;;;0.90;;
6667;SDS011;3370;47.712;9.082;2023-03-14T07:44:38;0.70;;;0.70;;
6667;SDS011;3370;47.712;9.082;2023-03-14T07:47:24;0.80;;;0.80;;
6667;SDS011;3370;47.712;9.082;2023-03-14T07:50:10;0.83;;;0.83;;
6667;SDS011;3370;47.712;9.082;2023-03-14T07:52:56;2.73;;;1.07;;
6667;SDS011;3370;47.712;9.082;2023-03-14T07:55:42;0.87;;;0.87;;
6667;SDS011;3370;47.712;9.082;2023-03-14T07:58:29;1.00;;;1.00;;
6667;SDS011;3370;47.712;9.082;2023-03-14T08:01:15;1.20;;;1.20;;
6667;SDS011;3370;47.712;9.082;2023-03-14T08:04:01;0.90;;;0.90;;
6667;SDS011;3370;47.712;9.082;2023-03-14T08:06:47;1.50;;;0.93;;
6667;SDS011;3370;47.712;9.082;2023-03-14T08:09:33;0.90;;;0.90;;
6667;SDS011;3370;47.712;9.082;2023-03-14T08:12:19;0.80;;;0.80;;
6667;SDS011;3370;47.712;9.082;2023-03-14T08:15:05;1.43;;;0.80;;
6667;SDS011;3370;47.712;9.082;2023-03-14T08:17:52;0.83;;;0.83;;
6667;SDS011;3370;47.712;9.082;2023-03-14T08:20:39;0.90;;;0.90;;
6667;SDS011;3370;47.712;9.082;2023-03-14T08:23:25;1.13;;;1.10;;
6667;SDS011;3370;47.712;9.082;2023-03-14T08:26:11;0.90;;;0.90;;
6667;SDS011;3370;47.712;9.082;2023-03-14T08:28:57;0.70;;;0.70;;
6667;SDS011;3370;47.712;9.082;2023-03-14T08:31:43;0.70;;;0.70;;
6667;SDS011;3370;47.712;9.082;2023-03-14T08:34:29;4.83;;;0.80;;
6667;SDS011;3370;47.712;9.082;2023-03-14T08:37:15;0.80;;;0.80;;
6667;SDS011;3370;47.712;9.082;2023-03-14T08:40:02;0.90;;;0.90;;
6667;SDS011;3370;47.712;9.082;2023-03-14T08:42:55;0.70;;;0.70;;
6667;SDS011;3370;47.712;9.082;2023-03-14T08:45:41;0.70;;;0.70;;
6667;SDS011;3370;47.712;9.082;2023-03-14T08:48:27;1.47;;;0.80;;
6667;SDS011;3370;47.712;9.082;2023-03-14T08:51:15;0.90;;;0.90;;
6667;SDS011;3370;47.712;9.082;2023-03-14T08:54:01;0.73;;;0.70;;
6667;SDS011;3370;47.712;9.082;2023-03-14T08:56:47;0.90;;;0.90;;
6667;SDS011;3370;47.712;9.082;2023-03-14T08:59:33;0.90;;;0.90;;
6667;SDS011;3370;47.712;9.082;2023-03-14T09:02:19;0.77;;;0.77;;
6667;SDS011;3370;47.712;9.082;2023-03-14T09:05:05;0.73;;;0.73;;
6667;SDS011;3370;47.712;9.082;2023-03-14T09:07:52;1.00;;;1.00;;
6667;SDS011;3370;47.712;9.082;2023-03-14T09:10:39;1.37;;;0.80;;
6667;SDS011;3370;47.712;9.082;2023-03-14T09:13:25;0.90;;;0.90;;
6667;SDS011;3370;47.712;9.082;2023-03-14T09:16:11;0.83;;;0.80;;
6667;SDS011;3370;47.712;9.082;2023-03-14T09:18:57;0.77;;;0.77;;
6667;SDS011;3370;47.712;9.082;2023-03-14T09:21:44;2.10;;;1.00;;
6667;SDS011;3370;47.712;9.082;2023-03-14T09:24:31;1.83;;;1.07;;
6667;SDS011;3370;47.712;9.082;2023-03-14T09:27:17;0.70;;;0.70;;
6667;SDS011;3370;47.712;9.082;2023-03-14T09:30:03;0.90;;;0.90;;
6667;SDS011;3370;47.712;9.082;2023-03-14T09:32:49;4.50;;;0.70;;
6667;SDS011;3370;47.712;9.082;2023-03-14T09:35:35;0.90;;;0.87;;
6667;SDS011;3370;47.712;9.082;2023-03-14T09:38:21;0.93;;;0.93;;
6667;SDS011;3370;47.712;9.082;2023-03-14T09:41:13;1.00;;;0.90;;
6667;SDS011;3370;47.712;9.082;2023-03-14T09:44:18;0.80;;;0.80;;
6667;SDS011;3370;47.712;9.082;2023-03-14T09:47:23;2.80;;;0.80;;
6667;SDS011;3370;47.712;9.082;2023-03-14T09:50:12;0.90;;;0.90;;
6667;SDS011;3370;47.712;9.082;2023-03-14T09:53:02;0.77;;;0.77;;
6667;SDS011;3370;47.712;9.082;2023-03-14T09:55:52;0.63;;;0.63;;
6667;SDS011;3370;47.712;9.082;2023-03-14T09:58:43;1.90;;;0.80;;
6667;SDS011;3370;47.712;9.082;2023-03-14T10:01:35;0.70;;;0.70;;
6667;SDS011;3370;47.712;9.082;2023-03-14T10:04:22;0.60;;;0.60;;
6667;SDS011;3370;47.712;9.082;2023-03-14T10:07:44;0.70;;;0.70;;
6667;SDS011;3370;47.712;9.082;2023-03-14T10:10:24;2.13;;;0.90;;
6667;SDS011;3370;47.712;9.082;2023-03-14T10:16:09;0.80;;;0.80;;
6667;SDS011;3370;47.712;9.082;2023-03-14T10:18:59;0.90;;;0.90;;
6667;SDS011;3370;47.712;9.082;2023-03-14T10:21:51;1.27;;;0.70;;
6667;SDS011;3370;47.712;9.082;2023-03-14T10:24:39;0.80;;;0.80;;
6667;SDS011;3370;47.712;9.082;2023-03-14T10:27:36;0.80;;;0.80;;
6667;SDS011;3370;47.712;9.082;2023-03-14T10:33:32;7.20;;;0.80;;
6667;SDS011;3370;47.712;9.082;2023-03-14T10:36:21;0.80;;;0.80;;
6667;SDS011;3370;47.712;9.082;2023-03-14T10:42:16;0.70;;;0.70;;
6667;SDS011;3370;47.712;9.082;2023-03-14T10:45:22;0.80;;;0.80;;
6667;SDS011;3370;47.712;9.082;2023-03-14T10:48:22;0.70;;;0.70;;
6667;SDS011;3370;47.712;9.082;2023-03-14T10:54:22;0.73;;;0.70;;
6667;SDS011;3370;47.712;9.082;2023-03-14T10:57:11;0.77;;;0.77;;
6667;SDS011;3370;47.712;9.082;2023-03-14T10:59:57;0.80;;;0.80;;
6667;SDS011;3370;47.712;9.082;2023-03-14T11:02:49;1.07;;;1.07;;
6667;SDS011;3370;47.712;9.082;2023-03-14T11:09:28;1.27;;;0.80;;
6667;SDS011;3370;47.712;9.082;2023-03-14T11:12:38;0.90;;;0.90;;
6667;SDS011;3370;47.712;9.082;2023-03-14T11:15:38;7.13;;;0.87;;
6667;SDS011;3370;47.712;9.082;2023-03-14T11:22:52;0.70;;;0.70;;
6667;SDS011;3370;47.712;9.082;2023-03-14T11:25:56;0.80;;;0.80;;
6667;SDS011;3370;47.712;9.082;2023-03-14T11:29:15;0.70;;;0.70;;
6667;SDS011;3370;47.712;9.082;2023-03-14T11:32:14;0.80;;;0.80;;
6667;SDS011;3370;47.712;9.082;2023-03-14T11:35:16;0.93;;;0.90;;
6667;SDS011;3370;47.712;9.082;2023-03-14T11:38:30;0.80;;;0.80;;
6667;SDS011;3370;47.712;9.082;2023-03-14T11:41:39;0.93;;;0.93;;
6667;SDS011;3370;47.712;9.082;2023-03-14T11:44:34;1.73;;;0.73;;
6667;SDS011;3370;47.712;9.082;2023-03-14T11:47:26;3.53;;;1.23;;
6667;SDS011;3370;47.712;9.082;2023-03-14T11:50:23;2.53;;;0.90;;
6667;SDS011;3370;47.712;9.082;2023-03-14T11:56:54;0.77;;;0.77;;
6667;SDS011;3370;47.712;9.082;2023-03-14T12:09:00;2.43;;;1.10;;
6667;SDS011;3370;47.712;9.082;2023-03-14T12:11:52;0.70;;;0.70;;
6667;SDS011;3370;47.712;9.082;2023-03-14T12:14:45;0.90;;;0.90;;
6667;SDS011;3370;47.712;9.082;2023-03-14T12:17:40;2.57;;;0.93;;
6667;SDS011;3370;47.712;9.082;2023-03-14T12:20:28;1.00;;;0.70;;
6667;SDS011;3370;47.712;9.082;2023-03-14T12:23:14;0.70;;;0.70;;
6667;SDS011;3370;47.712;9.082;2023-03-14T12:31:43;0.90;;;0.90;;
6667;SDS011;3370;47.712;9.082;2023-03-14T12:34:33;0.80;;;0.80;;
6667;SDS011;3370;47.712;9.082;2023-03-14T12:37:37;0.70;;;0.70;;
6667;SDS011;3370;47.712;9.082;2023-03-14T12:40:31;1.93;;;1.10;;
6667;SDS011;3370;47.712;9.082;2023-03-14T12:43:25;0.70;;;0.70;;
6667;SDS011;3370;47.712;9.082;2023-03-14T12:46:19;1.33;;;0.80;;
6667;SDS011;3370;47.712;9.082;2023-03-14T12:49:12;1.90;;;0.90;;
6667;SDS011;3370;47.712;9.082;2023-03-14T12:51:59;1.43;;;0.90;;
6667;SDS011;3370;47.712;9.082;2023-03-14T13:01:01;1.80;;;0.90;;
6667;SDS011;3370;47.712;9.082;2023-03-14T13:03:51;0.70;;;0.70;;
6667;SDS011;3370;47.712;9.082;2023-03-14T13:06:54;0.80;;;0.80;;
6667;SDS011;3370;47.712;9.082;2023-03-14T13:09:50;0.90;;;0.90;;
6667;SDS011;3370;47.712;9.082;2023-03-14T13:13:20;1.43;;;1.00;;
6667;SDS011;3370;47.712;9.082;2023-03-14T13:16:12;1.20;;;1.10;;
6667;SDS011;3370;47.712;9.082;2023-03-14T13:19:06;2.10;;;0.97;;
6667;SDS011;3370;47.712;9.082;2023-03-14T13:22:20;2.10;;;1.17;;
6667;SDS011;3370;47.712;9.082;2023-03-14T13:25:11;2.60;;;1.43;;
6667;SDS011;3370;47.712;9.082;2023-03-14T13:27:57;1.03;;;1.03;;
6667;SDS011;3370;47.712;9.082;2023-03-14T13:30:44;2.40;;;1.60;;
6667;SDS011;3370;47.712;9.082;2023-03-14T13:33:32;1.30;;;1.27;;
6667;SDS011;3370;47.712;9.082;2023-03-14T13:36:21;3.27;;;1.67;;
6667;SDS011;3370;47.712;9.082;2023-03-14T13:39:12;1.17;;;1.17;;
6667;SDS011;3370;47.712;9.082;2023-03-14T13:42:03;0.83;;;0.83;;
6667;SDS011;3370;47.712;9.082;2023-03-14T13:44:49;1.47;;;1.37;;
6667;SDS011;3370;47.712;9.082;2023-03-14T13:47:38;1.83;;;1.73;;
6667;SDS011;3370;47.712;9.082;2023-03-14T13:50:25;1.80;;;1.70;;
6667;SDS011;3370;47.712;9.082;2023-03-14T13:53:11;1.80;;;1.10;;
6667;SDS011;3370;47.712;9.082;2023-03-14T13:56:01;1.50;;;1.20;;
6667;SDS011;3370;47.712;9.082;2023-03-14T13:58:48;1.00;;;1.00;;
6667;SDS011;3370;47.712;9.082;2023-03-14T14:01:35;1.17;;;1.17;;
6667;SDS011;3370;47.712;9.082;2023-03-14T14:04:24;1.00;;;1.00;;
6667;SDS011;3370;47.712;9.082;2023-03-14T14:07:15;1.13;;;0.97;;
6667;SDS011;3370;47.712;9.082;2023-03-14T14:10:04;0.97;;;0.80;;
6667;SDS011;3370;47.712;9.082;2023-03-14T14:15:49;1.20;;;1.10;;
6667;SDS011;3370;47.712;9.082;2023-03-14T14:18:39;3.30;;;1.20;;
6667;SDS011;3370;47.712;9.082;2023-03-14T14:21:26;3.53;;;1.10;;
6667;SDS011;3370;47.712;9.082;2023-03-14T14:24:15;2.63;;;1.33;;
6667;SDS011;3370;47.712;9.082;2023-03-14T14:27:08;2.00;;;1.30;;
6667;SDS011;3370;47.712;9.082;2023-03-14T14:30:45;1.67;;;1.30;;
6667;SDS011;3370;47.712;9.082;2023-03-14T14:33:19;1.87;;;1.70;;
6667;SDS011;3370;47.712;9.082;2023-03-14T14:36:40;1.10;;;1.00;;
6667;SDS011;3370;47.712;9.082;2023-03-14T14:39:26;3.60;;;1.57;;
6667;SDS011;3370;47.712;9.082;2023-03-14T14:42:14;0.97;;;0.97;;
6667;SDS011;3370;47.712;9.082;2023-03-14T14:45:03;1.17;;;1.10;;
6667;SDS011;3370;47.712;9.082;2023-03-14T14:53:41;1.43;;;1.23;;
6667;SDS011;3370;47.712;9.082;2023-03-14T14:56:28;1.40;;;1.30;;
6667;SDS011;3370;47.712;9.082;2023-03-14T14:59:22;6.43;;;1.37;;
6667;SDS011;3370;47.712;9.082;2023-03-14T15:05:29;1.47;;;1.37;;
6667;SDS011;3370;47.712;9.082;2023-03-14T15:08:21;2.60;;;1.40;;
6667;SDS011;3370;47.712;9.082;2023-03-14T15:11:08;2.93;;;1.30;;
6667;SDS011;3370;47.712;9.082;2023-03-14T15:14:10;5.70;;;1.43;;
6667;SDS011;3370;47.712;9.082;2023-03-14T15:16:56;5.40;;;1.50;;
6667;SDS011;3370;47.712;9.082;2023-03-14T15:19:42;2.83;;;2.27;;
6667;SDS011;3370;47.712;9.082;2023-03-14T15:22:28;2.20;;;1.40;;
6667;SDS011;3370;47.712;9.082;2023-03-14T15:25:14;2.43;;;0.87;;
6667;SDS011;3370;47.712;9.082;2023-03-14T15:28:01;3.10;;;1.23;;
6667;SDS011;3370;47.712;9.082;2023-03-14T15:30:48;4.10;;;1.40;;
6667;SDS011;3370;47.712;9.082;2023-03-14T15:33:38;1.63;;;1.27;;
6667;SDS011;3370;47.712;9.082;2023-03-14T15:36:26;1.53;;;1.30;;
6667;SDS011;3370;47.712;9.082;2023-03-14T15:39:16;3.77;;;1.07;;
6667;SDS011;3370;47.712;9.082;2023-03-14T15:42:02;3.40;;;1.40;;
6667;SDS011;3370;47.712;9.082;2023-03-14T15:44:48;3.07;;;1.53;;
6667;SDS011;3370;47.712;9.082;2023-03-14T15:47:34;1.87;;;1.40;;
6667;SDS011;3370;47.712;9.082;2023-03-14T15:50:20;2.00;;;1.37;;
6667;SDS011;3370;47.712;9.082;2023-03-14T15:53:06;2.60;;;1.40;;
6667;SDS011;3370;47.712;9.082;2023-03-14T15:55:53;1.33;;;1.20;;
6667;SDS011;3370;47.712;9.082;2023-03-14T15:58:39;2.07;;;1.37;;
6667;SDS011;3370;47.712;9.082;2023-03-14T16:01:26;1.40;;;1.30;;
6667;SDS011;3370;47.712;9.082;2023-03-14T16:04:12;2.97;;;1.70;;
6667;SDS011;3370;47.712;9.082;2023-03-14T16:06:59;3.23;;;1.40;;
6667;SDS011;3370;47.712;9.082;2023-03-14T16:09:45;1.40;;;1.30;;
6667;SDS011;3370;47.712;9.082;2023-03-14T16:12:31;1.60;;;1.50;;
6667;SDS011;3370;47.712;9.082;2023-03-14T16:15:17;1.60;;;1.10;;
6667;SDS011;3370;47.712;9.082;2023-03-14T16:18:04;5.43;;;1.70;;
6667;SDS011;3370;47.712;9.082;2023-03-14T16:21:03;2.10;;;1.67;;
6667;SDS011;3370;47.712;9.082;2023-03-14T16:23:52;2.77;;;1.33;;
6667;SDS011;3370;47.712;9.082;2023-03-14T16:26:38;5.30;;;1.93;;
6667;SDS011;3370;47.712;9.082;2023-03-14T16:29:24;4.63;;;2.00;;
6667;SDS011;3370;47.712;9.082;2023-03-14T16:32:11;3.67;;;1.60;;
6667;SDS011;3370;47.712;9.082;2023-03-14T16:34:57;2.73;;;1.37;;
6667;SDS011;3370;47.712;9.082;2023-03-14T16:37:43;3.80;;;1.40;;
6667;SDS011;3370;47.712;9.082;2023-03-14T16:40:29;2.93;;;1.17;;
6667;SDS011;3370;47.712;9.082;2023-03-14T16:43:15;4.03;;;1.10;;
6667;SDS011;3370;47.712;9.082;2023-03-14T16:46:02;2.70;;;1.07;;
6667;SDS011;3370;47.712;9.082;2023-03-14T16:48:49;1.57;;;1.00;;
6667;SDS011;3370;47.712;9.082;2023-03-14T16:51:35;2.50;;;1.40;;
6667;SDS011;3370;47.712;9.082;2023-03-14T16:54:22;3.00;;;1.57;;
6667;SDS011;3370;47.712;9.082;2023-03-14T16:57:08;4.00;;;1.60;;
6667;SDS011;3370;47.712;9.082;2023-03-14T16:59:54;2.40;;;1.03;;
6667;SDS011;3370;47.712;9.082;2023-03-14T17:02:40;1.47;;;1.10;;
6667;SDS011;3370;47.712;9.082;2023-03-14T17:05:26;1.97;;;1.23;;
6667;SDS011;3370;47.712;9.082;2023-03-14T17:08:12;4.97;;;1.47;;
6667;SDS011;3370;47.712;9.082;2023-03-14T17:10:59;1.40;;;1.00;;
6667;SDS011;3370;47.712;9.082;2023-03-14T17:13:45;2.67;;;1.17;;
6667;SDS011;3370;47.712;9.082;2023-03-14T17:16:31;3.13;;;2.17;;
6667;SDS011;3370;47.712;9.082;2023-03-14T17:19:18;1.57;;;1.40;;
6667;SDS011;3370;47.712;9.082;2023-03-14T17:22:04;2.20;;;1.50;;
6667;SDS011;3370;47.712;9.082;2023-03-14T17:24:50;1.80;;;1.27;;
6667;SDS011;3370;47.712;9.082;2023-03-14T17:27:36;2.50;;;1.43;;
6667;SDS011;3370;47.712;9.082;2023-03-14T17:30:22;2.43;;;1.83;;
6667;SDS011;3370;47.712;9.082;2023-03-14T17:33:08;5.30;;;1.23;;
6667;SDS011;3370;47.712;9.082;2023-03-14T17:35:54;2.20;;;1.70;;
6667;SDS011;3370;47.712;9.082;2023-03-14T17:38:40;3.17;;;1.20;;
6667;SDS011;3370;47.712;9.082;2023-03-14T17:41:26;3.33;;;1.30;;
6667;SDS011;3370;47.712;9.082;2023-03-14T17:44:12;3.30;;;1.67;;
6667;SDS011;3370;47.712;9.082;2023-03-14T17:46:59;1.50;;;1.40;;
6667;SDS011;3370;47.712;9.082;2023-03-14T17:49:45;1.30;;;1.20;;
6667;SDS011;3370;47.712;9.082;2023-03-14T17:52:32;1.47;;;1.13;;
6667;SDS011;3370;47.712;9.082;2023-03-14T17:55:19;6.53;;;1.27;;
6667;SDS011;3370;47.712;9.082;2023-03-14T17:58:05;1.07;;;1.07;;
6667;SDS011;3370;47.712;9.082;2023-03-14T18:00:51;1.13;;;1.10;;
6667;SDS011;3370;47.712;9.082;2023-03-14T18:03:37;1.17;;;0.97;;
6667;SDS011;3370;47.712;9.082;2023-03-14T18:06:24;2.90;;;1.80;;
6667;SDS011;3370;47.712;9.082;2023-03-14T18:09:12;1.17;;;1.10;;
6667;SDS011;3370;47.712;9.082;2023-03-14T18:11:58;1.50;;;1.20;;
6667;SDS011;3370;47.712;9.082;2023-03-14T18:14:44;1.93;;;1.07;;
6667;SDS011;3370;47.712;9.082;2023-03-14T18:17:30;1.13;;;0.97;;
6667;SDS011;3370;47.712;9.082;2023-03-14T18:20:16;2.20;;;1.20;;
6667;SDS011;3370;47.712;9.082;2023-03-14T18:23:02;1.77;;;1.23;;
6667;SDS011;3370;47.712;9.082;2023-03-14T18:25:49;1.40;;;1.30;;
6667;SDS011;3370;47.712;9.082;2023-03-14T18:28:36;1.90;;;1.23;;